»·PEaware :: N24W KRNO-KBOI

N24W :: KRNO-KBOI

FLIGHT INFORMATION

Flight Status: Arrived
Operator: Privately registered:
United States
More flights under this callsign
Pilot: Mark R. (11809)
Aircraft: CESSNA 550 CITATION 2/S2/BRAVO
(C550)
More flights by this aircraft type
Origin: KRNO Reno/Tahoe Intl
United States
Destination: KBOI Boise Air Terminal/Gowen
United States
More flights between these airports :: More routes between these airports
Route: FMG PRNCS SADYL3
File this flight plan on PilotEdge
Remarks:
Altitude:
(Current/Filed)
21,000ft
Speed:
(Current/Filed)
320kts
Departed: 28-Mar-18 02:38 PM
Arrived: 28-Mar-18 03:46 PM
Distance/Time
Traveled:
291nm/1:08
Distance/Time
To Go:
Arrived

Flight Plot

Page will automatically refresh every two minutes.

Flight plan parsing failed; only flown route is shown


Map Options




Map Legend


Flown Route
Filed Route
Departure Airport
Arrival Airport
Navaid (VOR, NDB)
Fix

Horizontal Profiles

Position Reports

Time Latitude Longitude Heading Altitude Ground
Speed
28-Mar-18 14:16 39.507782 -119.764442 179 4411ft 0kts
28-Mar-18 14:17 39.507782 -119.764442 179 4411ft 0kts
28-Mar-18 14:18 39.507782 -119.764442 179 4411ft 0kts
28-Mar-18 14:19 39.507782 -119.764442 179 4411ft 0kts
28-Mar-18 14:20 39.507782 -119.764442 179 4411ft 0kts
28-Mar-18 14:21 39.507782 -119.764442 179 4411ft 0kts
28-Mar-18 14:22 39.507782 -119.764442 179 4411ft 0kts
28-Mar-18 14:23 39.507782 -119.764442 179 4411ft 0kts
28-Mar-18 14:24 39.507782 -119.764442 179 4411ft 0kts
28-Mar-18 14:25 39.507782 -119.764442 179 4411ft 0kts
28-Mar-18 14:26 39.507782 -119.764442 179 4411ft 0kts
28-Mar-18 14:27 39.507782 -119.764442 179 4411ft 0kts
28-Mar-18 14:28 39.507782 -119.764442 179 4411ft 0kts
28-Mar-18 14:29 39.507467 -119.764943 208 4411ft 5kts
28-Mar-18 14:30 39.507484 -119.765819 1 4411ft 6kts
28-Mar-18 14:31 39.509725 -119.765819 359 4413ft 6kts
28-Mar-18 14:32 39.511918 -119.765124 357 4413ft 10kts
28-Mar-18 14:33 39.513648 -119.765366 305 4414ft 6kts
28-Mar-18 14:34 39.513729 -119.765620 278 4414ft 0kts
28-Mar-18 14:35 39.513729 -119.765620 278 4414ft 0kts
28-Mar-18 14:36 39.513055 -119.766739 181 4415ft 15kts
28-Mar-18 14:37 39.483032 -119.767874 179 5629ft 144kts
28-Mar-18 14:38 39.445757 -119.768637 179 7364ft 182kts
28-Mar-18 14:39 39.402666 -119.743315 81 9563ft 211kts
28-Mar-18 14:40 39.452569 -119.701736 25 11678ft 238kts
28-Mar-18 14:41 39.515627 -119.665147 25 13733ft 257kts
28-Mar-18 14:42 39.579507 -119.626958 25 15998ft 255kts
28-Mar-18 14:43 39.644000 -119.588002 25 17759ft 264kts
28-Mar-18 14:44 39.712249 -119.546690 25 19108ft 281kts
28-Mar-18 14:45 39.785680 -119.502144 25 20207ft 301kts
28-Mar-18 14:46 39.863652 -119.454725 25 21070ft 319kts
28-Mar-18 14:47 39.945220 -119.404985 26 21378ft 324kts
28-Mar-18 14:48 40.026990 -119.354988 27 21380ft 329kts
28-Mar-18 14:49 40.110979 -119.303500 27 21380ft 336kts
28-Mar-18 14:50 40.195850 -119.251333 27 21377ft 340kts
28-Mar-18 14:51 40.282801 -119.197727 25 21344ft 355kts
28-Mar-18 14:52 40.373603 -119.141582 23 21342ft 364kts
28-Mar-18 14:53 40.464451 -119.085243 23 21340ft 360kts
28-Mar-18 14:54 40.553973 -119.029573 23 21339ft 354kts
28-Mar-18 14:55 40.641819 -118.974789 23 21339ft 350kts
28-Mar-18 14:56 40.729202 -118.920134 23 21341ft 348kts
28-Mar-18 14:57 40.816498 -118.865365 23 21341ft 347kts
28-Mar-18 14:58 40.903497 -118.810622 23 21342ft 350kts
28-Mar-18 14:59 40.991561 -118.755036 23 21341ft 352kts
28-Mar-18 15:00 41.079682 -118.699250 22 21351ft 353kts
28-Mar-18 15:01 41.168433 -118.642896 22 21332ft 355kts
28-Mar-18 15:02 41.257272 -118.586317 22 21331ft 352kts
28-Mar-18 15:03 41.345102 -118.530219 22 21331ft 349kts
28-Mar-18 15:04 41.431804 -118.474674 23 21328ft 348kts
28-Mar-18 15:05 41.518261 -118.419286 22 21328ft 347kts
28-Mar-18 15:06 41.603055 -118.364670 23 21328ft 346kts
28-Mar-18 15:07 41.688997 -118.309126 23 21331ft 346kts
28-Mar-18 15:08 41.775204 -118.253234 23 21331ft 346kts
28-Mar-18 15:09 41.861855 -118.196887 22 21291ft 347kts
28-Mar-18 15:10 41.948594 -118.140308 22 21291ft 347kts
28-Mar-18 15:11 42.034972 -118.083794 22 21291ft 349kts
28-Mar-18 15:12 42.122433 -118.026393 22 21291ft 350kts
28-Mar-18 15:13 42.209946 -117.968781 22 21291ft 351kts
28-Mar-18 15:14 42.297663 -117.910851 21 21291ft 351kts
28-Mar-18 15:15 42.385190 -117.852873 22 21291ft 352kts
28-Mar-18 15:16 42.462730 -117.774296 45 21293ft 359kts
28-Mar-18 15:17 42.528441 -117.672540 47 21291ft 360kts
28-Mar-18 15:18 42.591843 -117.568055 46 21291ft 359kts
28-Mar-18 15:19 42.653600 -117.465506 47 21290ft 356kts
28-Mar-18 15:20 42.716080 -117.361432 47 21291ft 355kts
28-Mar-18 15:21 42.778134 -117.257446 47 21291ft 356kts
28-Mar-18 15:22 42.840171 -117.152238 47 21291ft 357kts
28-Mar-18 15:23 42.902032 -117.046868 48 20810ft 355kts
28-Mar-18 15:24 42.962204 -116.944058 48 18820ft 343kts
28-Mar-18 15:25 43.020531 -116.844069 47 17103ft 331kts
28-Mar-18 15:26 43.077486 -116.747101 46 16009ft 315kts
28-Mar-18 15:27 43.131016 -116.656485 46 13153ft 301kts
28-Mar-18 15:28 43.182661 -116.568729 47 10522ft 292kts
28-Mar-18 15:29 43.233158 -116.489239 45 8633ft 282kts
28-Mar-18 15:30 43.282830 -116.411035 45 7066ft 252kts
28-Mar-18 15:31 43.325523 -116.343508 45 6064ft 226kts
28-Mar-18 15:32 43.364517 -116.276219 54 6056ft 230kts
28-Mar-18 15:33 43.400125 -116.203848 51 6043ft 218kts
28-Mar-18 15:34 43.425476 -116.126074 97 6072ft 250kts
28-Mar-18 15:35 43.414546 -116.033334 97 6045ft 216kts
28-Mar-18 15:36 43.404735 -115.958005 93 7027ft 214kts
28-Mar-18 15:37 43.423320 -115.904891 13 7058ft 175kts
28-Mar-18 15:38 43.465487 -115.935402 317 6541ft 180kts
28-Mar-18 15:39 43.488282 -115.997179 298 6541ft 174kts
28-Mar-18 15:40 43.508153 -116.053894 296 6527ft 157kts
28-Mar-18 15:41 43.523158 -116.102307 305 5617ft 131kts
28-Mar-18 15:42 43.538257 -116.143731 299 4341ft 113kts
28-Mar-18 15:43 43.551573 -116.182411 298 3278ft 109kts
28-Mar-18 15:44 43.563545 -116.217341 295 2859ft 70kts
28-Mar-18 15:45 43.566184 -116.224000 339 2850ft 5kts
28-Mar-18 15:46 43.568624 -116.224338 350 2850ft 18kts
28-Mar-18 15:47 43.570836 -116.228462 294 2842ft 0kts

Navigation Log

Ident Type
Flight plan parsing failed, navigation log unavailable